Time;durP1;ratioP1;P1;durP2;ratioP2;P2;SDS_P1;SDS_P2;PMS_P1;PMS_P2;Temp;Humidity;BMP_temperature;BMP_pressure;BME280_temperature;BME280_humidity;BME280_pressure;Samples;Min_cycle;Max_cycle;Signal;HPM_P1;HPM_P2
2023/12/12 00:00:53;;;;;;;;;87.33;62.00;;;;;1.41;100.00;98992.28;6310972;20;3652372;-44
2023/12/12 00:03:23;;;;;;;;;91.00;64.67;;;;;1.63;100.00;98981.78;6311973;20;3664966;-44
2023/12/12 00:05:52;;;;;;;;;85.00;63.33;;;;;1.54;100.00;99006.78;6279312;20;3660651;-44
2023/12/12 00:08:20;;;;;;;;;78.00;56.00;;;;;1.47;100.00;99015.00;6311975;20;2870110;-43
2023/12/12 00:10:50;;;;;;;;;87.00;66.00;;;;;1.61;100.00;99009.25;6278175;20;3649394;-45
2023/12/12 00:13:20;;;;;;;;;86.00;64.67;;;;;1.70;100.00;99009.75;6313710;20;3631521;-43
2023/12/12 00:15:50;;;;;;;;;88.67;62.67;;;;;1.68;100.00;99016.03;6312072;20;3655598;-43
2023/12/12 00:18:19;;;;;;;;;90.00;63.33;;;;;2.02;100.00;98996.25;6313438;20;3673189;-44
2023/12/12 00:20:50;;;;;;;;;83.67;60.00;;;;;1.56;100.00;98997.97;6275176;20;3657677;-43
2023/12/12 00:23:20;;;;;;;;;83.67;64.67;;;;;1.66;100.00;98994.03;6309679;20;2897262;-42
2023/12/12 00:25:49;;;;;;;;;82.67;63.00;;;;;1.42;100.00;98991.38;6311496;20;2890027;-43
2023/12/12 00:28:19;;;;;;;;;85.00;63.00;;;;;2.08;100.00;98993.34;6311597;20;3635727;-44
2023/12/12 00:30:50;;;;;;;;;81.00;61.00;;;;;2.54;100.00;98983.63;6309186;20;2890972;-43
2023/12/12 00:33:20;;;;;;;;;85.33;64.00;;;;;2.57;100.00;98976.41;6312501;20;3640912;-43
2023/12/12 00:35:49;;;;;;;;;83.00;67.00;;;;;2.52;100.00;98972.22;6311061;20;2881583;-43
2023/12/12 00:38:19;;;;;;;;;81.67;65.00;;;;;2.65;100.00;98962.84;6311991;20;2872245;-43
2023/12/12 00:40:55;;;;;;;;;81.33;62.33;;;;;3.09;100.00;98976.03;6309971;20;3635718;-43
2023/12/12 00:43:25;;;;;;;;;89.67;69.00;;;;;3.00;100.00;98990.56;6312732;20;2894059;-43
2023/12/12 00:45:55;;;;;;;;;90.67;66.00;;;;;3.16;100.00;98985.47;6311749;20;3657554;-43
2023/12/12 00:48:25;;;;;;;;;84.67;63.00;;;;;2.98;100.00;98986.25;6312168;20;3657033;-43
2023/12/12 00:50:55;;;;;;;;;86.33;65.00;;;;;3.07;100.00;98988.50;6309991;20;3640955;-44
2023/12/12 00:53:25;;;;;;;;;85.33;64.33;;;;;3.24;100.00;98986.00;6310674;20;3633669;-45
2023/12/12 00:55:54;;;;;;;;;88.67;67.67;;;;;3.10;100.00;98991.00;6311646;20;3640859;-45
2023/12/12 00:58:24;;;;;;;;;93.00;69.33;;;;;2.72;100.00;98988.19;6312559;20;3655478;-44
2023/12/12 01:00:54;;;;;;;;;82.33;63.00;;;;;2.95;100.00;98991.66;6276538;20;3642973;-45
2023/12/12 01:03:24;;;;;;;;;91.00;66.33;;;;;2.96;100.00;98993.41;6311835;20;3650284;-44
2023/12/12 01:05:53;;;;;;;;;89.67;67.33;;;;;3.06;100.00;99000.03;6307404;20;3632541;-43
2023/12/12 01:08:23;;;;;;;;;81.33;62.00;;;;;3.18;100.00;99009.25;6310819;20;3628352;-43
2023/12/12 01:10:53;;;;;;;;;88.67;65.00;;;;;3.14;100.00;99011.19;6309131;20;3634624;-44
2023/12/12 01:13:23;;;;;;;;;88.67;66.33;;;;;3.12;100.00;99010.38;6310868;20;3649257;-44
2023/12/12 01:15:52;;;;;;;;;91.00;70.33;;;;;3.24;100.00;99017.81;6307153;20;3657648;-44
2023/12/12 01:18:22;;;;;;;;;85.67;64.00;;;;;3.35;100.00;99016.50;6278837;20;3643086;-43
2023/12/12 01:20:52;;;;;;;;;90.67;68.33;;;;;3.39;100.00;99016.28;6308513;20;3649253;-45
2023/12/12 01:23:21;;;;;;;;;90.00;69.33;;;;;3.44;100.00;99032.03;6311613;20;3649249;-44
2023/12/12 01:25:51;;;;;;;;;88.67;68.33;;;;;3.43;100.00;99022.34;6309390;20;3640922;-45
2023/12/12 01:28:21;;;;;;;;;91.67;67.00;;;;;3.22;100.00;99017.03;6309902;20;3643130;-44
2023/12/12 01:30:51;;;;;;;;;92.67;69.33;;;;;3.27;100.00;99009.72;6308207;20;3658630;-44
2023/12/12 01:33:21;;;;;;;;;89.00;69.00;;;;;3.47;100.00;99008.00;6311418;20;3644045;-43
2023/12/12 01:35:51;;;;;;;;;89.67;71.00;;;;;3.34;100.00;98993.53;6306813;20;3638822;-45
2023/12/12 01:38:21;;;;;;;;;89.67;65.67;;;;;3.17;100.00;98991.63;6309932;20;3648224;-43
2023/12/12 01:40:51;;;;;;;;;92.33;68.33;;;;;3.29;100.00;98991.97;6309281;20;3651342;-43
2023/12/12 01:43:30;;;;;;;;;93.67;67.67;;;;;3.30;100.00;99016.69;6310705;20;3669104;-43
2023/12/12 01:46:04;;;;;;;;;94.67;71.67;;;;;3.35;100.00;99022.66;6308421;20;3668047;-43
2023/12/12 01:48:34;;;;;;;;;83.00;67.00;;;;;3.16;100.00;99012.00;6277370;20;2867958;-43
2023/12/12 01:51:06;;;;;;;;;91.00;67.00;;;;;2.94;100.00;99014.66;6276843;20;3658615;-44
2023/12/12 01:53:47;;;;;;;;;93.00;67.67;;;;;2.75;100.00;99001.31;6307682;20;3662741;-43
2023/12/12 01:56:18;;;;;;;;;86.67;66.67;;;;;2.86;100.00;98998.19;6274712;20;2882666;-43
2023/12/12 01:58:51;;;;;;;;;90.67;69.67;;;;;2.78;100.00;99008.25;6308193;20;3655463;-45
2023/12/12 02:01:21;;;;;;;;;85.67;67.67;;;;;3.15;100.00;99014.69;6306417;20;2873309;-44
2023/12/12 02:03:53;;;;;;;;;91.67;69.00;;;;;3.26;100.00;99012.44;6307797;20;3647168;-43
2023/12/12 02:06:23;;;;;;;;;83.67;64.00;;;;;3.22;100.00;99010.88;6304402;20;3641894;-43
2023/12/12 02:08:53;;;;;;;;;87.00;65.00;;;;;3.31;100.00;99010.44;6306878;20;3638806;-44
2023/12/12 02:11:23;;;;;;;;;91.00;70.00;;;;;2.96;100.00;99010.16;6308361;20;3650271;-43
2023/12/12 02:13:53;;;;;;;;;85.00;67.00;;;;;2.79;100.00;99008.22;6310498;20;2860893;-43
2023/12/12 02:16:23;;;;;;;;;86.67;66.00;;;;;3.14;100.00;99011.19;6304899;20;2880582;-43
2023/12/12 02:18:53;;;;;;;;;91.33;65.00;;;;;2.95;100.00;99004.91;6310221;20;3654412;-44
2023/12/12 02:21:22;;;;;;;;;91.00;67.00;;;;;3.11;100.00;98998.06;6310101;20;3637787;-43
2023/12/12 02:23:52;;;;;;;;;88.33;65.67;;;;;3.42;100.00;98996.72;6309719;20;3648589;-44
2023/12/12 02:26:22;;;;;;;;;92.33;69.00;;;;;3.46;100.00;98993.03;6308285;20;3653502;-43
2023/12/12 02:28:52;;;;;;;;;89.00;68.00;;;;;3.41;100.00;98989.69;6273701;20;3636736;-44
2023/12/12 02:31:21;;;;;;;;;89.33;66.33;;;;;3.53;100.00;98986.53;6307997;20;3650282;-45
2023/12/12 02:33:51;;;;;;;;;90.33;69.67;;;;;3.50;100.00;98994.59;6310112;20;3654554;-45
2023/12/12 02:36:21;;;;;;;;;92.00;69.67;;;;;3.49;100.00;98990.22;6311418;20;3652384;-45
2023/12/12 02:38:51;;;;;;;;;86.67;64.67;;;;;3.44;100.00;98995.72;6307163;20;3642011;-47
2023/12/12 02:41:20;;;;;;;;;85.33;61.33;;;;;3.48;100.00;98996.47;6309284;20;3665937;-44
2023/12/12 02:43:50;;;;;;;;;87.33;66.00;;;;;3.52;100.00;99011.31;6279980;20;3650286;-47
2023/12/12 02:46:20;;;;;;;;;88.33;66.67;;;;;3.39;100.00;99007.47;6314220;20;3644047;-44
2023/12/12 02:48:50;;;;;;;;;87.33;70.00;;;;;3.40;100.00;99003.91;6314553;20;3639842;-43
2023/12/12 02:51:19;;;;;;;;;86.67;67.00;;;;;3.46;100.00;99014.25;6315275;20;3646107;-46
2023/12/12 02:53:49;;;;;;;;;89.00;69.33;;;;;3.49;100.00;99014.97;6314051;20;3639863;-43
2023/12/12 02:56:19;;;;;;;;;84.67;63.67;;;;;3.43;100.00;99015.25;6314207;20;3656492;-44
2023/12/12 02:58:49;;;;;;;;;86.33;65.00;;;;;3.40;100.00;99006.56;6313557;20;3634641;-44
2023/12/12 03:01:18;;;;;;;;;88.67;66.67;;;;;3.54;100.00;98996.19;6314804;20;3645011;-44
2023/12/12 03:03:48;;;;;;;;;86.00;66.00;;;;;3.46;100.00;99004.50;6311656;20;3642916;-44
2023/12/12 03:06:18;;;;;;;;;87.33;65.00;;;;;3.58;100.00;99018.16;6307949;20;3632750;-44
2023/12/12 03:08:48;;;;;;;;;82.00;65.00;;;;;3.67;100.00;99008.00;6308750;20;2883619;-44
2023/12/12 03:11:17;;;;;;;;;86.67;67.00;;;;;3.52;100.00;99003.34;6310062;20;3641978;-44
2023/12/12 03:13:47;;;;;;;;;87.00;65.00;;;;;3.65;100.00;98998.38;6307347;20;3643076;-44
2023/12/12 03:16:17;;;;;;;;;84.50;64.00;;;;;3.69;100.00;98998.19;6306160;20;3524227;-45
2023/12/12 03:18:47;;;;;;;;;90.00;63.00;;;;;3.66;100.00;99000.97;6308701;20;3657641;-42
2023/12/12 03:21:20;;;;;;;;;88.67;66.00;;;;;3.38;100.00;99000.44;6312975;20;3637775;-43
2023/12/12 03:23:50;;;;;;;;;85.67;62.00;;;;;3.53;100.00;99005.09;6310601;20;3654491;-43
2023/12/12 03:26:19;;;;;;;;;86.00;67.00;;;;;3.50;100.00;99015.81;6280666;20;3639841;-44
2023/12/12 03:28:49;;;;;;;;;79.33;62.33;;;;;3.73;100.00;99013.00;6311406;20;3621085;-44
2023/12/12 03:31:19;;;;;;;;;82.67;65.67;;;;;3.76;100.00;99022.63;6313905;20;3633693;-43
2023/12/12 03:33:48;;;;;;;;;86.33;63.33;;;;;3.65;100.00;99019.59;6311211;20;3655442;-45
2023/12/12 03:36:18;;;;;;;;;82.00;62.33;;;;;3.76;100.00;99021.78;6276939;20;3653366;-42
2023/12/12 03:38:48;;;;;;;;;85.00;65.00;;;;;3.65;100.00;99020.47;6307918;20;3642943;-43
2023/12/12 03:41:17;;;;;;;;;77.00;60.00;;;;;3.78;100.00;99030.53;6308596;20;2759659;-45
2023/12/12 03:43:47;;;;;;;;;86.00;61.33;;;;;3.63;100.00;99026.75;6275147;20;3664922;-42
2023/12/12 03:46:18;;;;;;;;;84.00;63.00;;;;;3.77;100.00;99023.53;6311894;20;3633695;-44
2023/12/12 03:48:48;;;;;;;;;87.00;66.33;;;;;3.87;100.00;99032.78;6312937;20;3649180;-45
2023/12/12 03:51:18;;;;;;;;;81.67;63.00;;;;;3.83;100.00;99028.56;6310417;20;3640990;-45
2023/12/12 03:53:48;;;;;;;;;74.33;60.67;;;;;3.60;100.00;99033.06;6308112;20;2875349;-43
2023/12/12 03:56:18;;;;;;;;;85.33;66.00;;;;;3.54;100.00;99032.50;6309599;20;2878572;-43
2023/12/12 03:58:47;;;;;;;;;86.00;63.33;;;;;3.58;100.00;99036.72;6308577;20;3659649;-42
2023/12/12 04:01:17;;;;;;;;;84.67;63.33;;;;;3.62;100.00;99033.88;6313436;20;3650244;-44
2023/12/12 04:03:47;;;;;;;;;83.00;64.00;;;;;3.44;100.00;99037.31;6310965;20;3631532;-43
2023/12/12 04:06:17;;;;;;;;;86.00;64.00;;;;;3.18;100.00;99039.28;6311494;20;3660790;-43
2023/12/12 04:08:46;;;;;;;;;80.00;61.00;;;;;3.32;100.00;99035.19;6314104;20;2842981;-44
2023/12/12 04:11:16;;;;;;;;;84.33;64.33;;;;;3.46;100.00;99031.03;6279574;20;3649190;-45
2023/12/12 04:13:45;;;;;;;;;80.67;62.00;;;;;3.27;100.00;99036.25;6311554;20;3637845;-44
2023/12/12 04:16:15;;;;;;;;;85.67;64.67;;;;;3.46;100.00;99031.03;6308204;20;3642001;-44
2023/12/12 04:18:45;;;;;;;;;78.67;57.33;;;;;3.37;100.00;99038.50;6314603;20;3653460;-45
2023/12/12 04:21:15;;;;;;;;;83.00;61.33;;;;;3.37;100.00;99036.75;6312277;20;3654422;-44
2023/12/12 04:23:45;;;;;;;;;84.67;64.33;;;;;3.47;100.00;99039.84;6314060;20;3617972;-44
2023/12/12 04:26:15;;;;;;;;;84.67;64.67;;;;;3.47;100.00;99048.66;6311529;20;3635721;-47
2023/12/12 04:28:44;;;;;;;;;81.33;63.67;;;;;3.51;100.00;99050.25;6314973;20;3634643;-45
2023/12/12 04:31:16;;;;;;;;;84.00;63.33;;;;;3.55;100.00;99060.75;6313613;20;3653503;-45
2023/12/12 04:33:46;;;;;;;;;83.67;64.00;;;;;3.49;100.00;99059.22;6276074;20;3641928;-43
2023/12/12 04:36:16;;;;;;;;;87.00;63.33;;;;;3.52;100.00;99053.78;6313127;20;3657649;-44
2023/12/12 04:38:46;;;;;;;;;88.67;67.00;;;;;3.51;100.00;99060.03;6309481;20;2894189;-45
2023/12/12 04:41:16;;;;;;;;;87.33;67.33;;;;;3.38;100.00;99065.00;6311034;20;3613825;-43
2023/12/12 04:43:45;;;;;;;;;89.33;67.33;;;;;3.26;100.00;99058.38;6313146;20;3653375;-43
2023/12/12 04:46:20;;;;;;;;;86.00;66.00;;;;;3.34;100.00;99068.69;6312787;20;3627520;-43
2023/12/12 04:48:50;;;;;;;;;89.67;67.00;;;;;3.20;100.00;99074.56;6310104;20;3650842;-44
2023/12/12 04:51:20;;;;;;;;;87.00;64.33;;;;;3.36;100.00;99071.28;6313006;20;3662770;-44
2023/12/12 04:53:50;;;;;;;;;86.00;66.33;;;;;3.34;100.00;99068.69;6279582;20;3628628;-44
2023/12/12 04:56:20;;;;;;;;;86.33;66.33;;;;;3.31;100.00;99066.16;6314065;20;2887844;-43
2023/12/12 04:58:49;;;;;;;;;86.67;64.00;;;;;3.24;100.00;99072.69;6311117;20;3629415;-44
2023/12/12 05:01:19;;;;;;;;;90.33;66.00;;;;;3.29;100.00;99060.94;6308600;20;3665879;-44
2023/12/12 05:03:49;;;;;;;;;86.00;64.00;;;;;3.41;100.00;99059.53;6311279;20;3638856;-44
2023/12/12 05:06:19;;;;;;;;;83.33;65.00;;;;;3.22;100.00;99051.50;6309355;20;3627314;-45
2023/12/12 05:08:49;;;;;;;;;80.67;61.67;;;;;3.18;100.00;99057.00;6310813;20;3621154;-44
2023/12/12 05:11:19;;;;;;;;;82.67;63.33;;;;;3.33;100.00;99053.72;6312204;20;3661730;-43
2023/12/12 05:13:48;;;;;;;;;80.33;63.00;;;;;3.49;100.00;99052.13;6309977;20;3634576;-44
2023/12/12 05:16:19;;;;;;;;;89.33;66.00;;;;;3.07;100.00;99060.94;6308582;20;3650410;-44
2023/12/12 05:19:00;;;;;;;;;80.67;61.33;;;;;3.26;100.00;99053.09;6309619;20;3614819;-43
2023/12/12 05:21:30;;;;;;;;;84.00;64.00;;;;;3.33;100.00;99055.50;6310788;20;3633581;-43
2023/12/12 05:24:00;;;;;;;;;87.33;63.33;;;;;3.40;100.00;99062.28;6310795;20;3656568;-44
2023/12/12 05:26:29;;;;;;;;;71.50;58.50;;;;;3.67;100.00;99066.41;6305859;20;2861731;-43
2023/12/12 05:28:59;;;;;;;;;80.67;62.67;;;;;3.66;100.00;99050.50;6279889;20;3628391;-44
2023/12/12 05:31:29;;;;;;;;;78.67;63.00;;;;;3.82;100.00;99058.66;6308713;20;2873304;-44
2023/12/12 05:33:59;;;;;;;;;87.75;65.25;;;;;3.96;100.00;99058.94;6310167;20;4400328;-46
2023/12/12 05:36:29;;;;;;;;;86.00;64.00;;;;;3.91;100.00;99058.28;6310945;20;3637858;-43
2023/12/12 05:38:59;;;;;;;;;87.00;65.67;;;;;3.82;100.00;99077.25;6309496;20;3629521;-44
2023/12/12 05:41:28;;;;;;;;;100.67;86.67;;;;;3.78;100.00;99073.03;6310456;20;3677449;-45
2023/12/12 05:43:58;;;;;;;;;89.33;64.33;;;;;3.71;100.00;99088.34;6278328;20;3618451;-43
2023/12/12 05:46:28;;;;;;;;;91.00;68.67;;;;;3.58;100.00;99096.00;6308788;20;3658610;-44
2023/12/12 05:48:58;;;;;;;;;89.00;66.67;;;;;3.83;100.00;99097.59;6311022;20;3634614;-44
2023/12/12 05:51:28;;;;;;;;;109.33;90.33;;;;;3.87;100.00;99093.84;6309859;20;3689997;-42
2023/12/12 05:53:57;;;;;;;;;94.67;73.67;;;;;3.82;100.00;99102.03;6277428;20;3669014;-43
2023/12/12 05:56:27;;;;;;;;;93.33;69.33;;;;;3.87;100.00;99105.38;6278745;20;3666338;-44
2023/12/12 05:58:57;;;;;;;;;90.33;67.00;;;;;3.84;100.00;99105.47;6275105;20;3643062;-44
2023/12/12 06:01:27;;;;;;;;;77.00;61.33;;;;;3.95;100.00;99110.34;6310534;20;2860693;-44
2023/12/12 06:03:58;;;;;;;;;88.33;66.00;;;;;3.93;100.00;99109.53;6309652;20;3644086;-44
2023/12/12 06:06:27;;;;;;;;;87.00;64.67;;;;;3.91;100.00;99116.69;6308584;20;3638813;-43
2023/12/12 06:08:57;;;;;;;;;91.67;65.00;;;;;3.96;100.00;99115.56;6308364;20;3656505;-45
2023/12/12 06:11:27;;;;;;;;;114.00;92.67;;;;;3.97;100.00;99117.28;6310029;20;3687874;-44
2023/12/12 06:13:57;;;;;;;;;113.33;95.33;;;;;4.00;100.00;99113.63;6279245;20;3692961;-46
2023/12/12 06:16:27;;;;;;;;;94.00;76.33;;;;;3.94;100.00;99106.78;6275478;20;3664881;-43
2023/12/12 06:18:58;;;;;;;;;92.00;72.00;;;;;3.85;100.00;99120.50;6278599;20;3663850;-44
2023/12/12 06:21:27;;;;;;;;;95.33;74.67;;;;;3.74;100.00;99126.25;6275460;20;3675341;-44
2023/12/12 06:24:01;;;;;;;;;87.00;67.33;;;;;3.69;100.00;99128.25;6277632;20;3639822;-43
2023/12/12 06:26:32;;;;;;;;;88.00;65.67;;;;;3.87;100.00;99125.72;6307833;20;3636709;-43
2023/12/12 06:29:02;;;;;;;;;89.33;66.67;;;;;3.84;100.00;99117.88;6306230;20;3654549;-44
2023/12/12 06:31:31;;;;;;;;;78.00;61.00;;;;;3.82;100.00;99125.06;6276856;20;2871227;-44
2023/12/12 06:34:01;;;;;;;;;78.33;57.67;;;;;3.91;100.00;99133.50;6277796;20;3644418;-44
2023/12/12 06:36:31;;;;;;;;;80.33;61.33;;;;;3.95;100.00;99136.91;6308628;20;3650273;-43
2023/12/12 06:39:02;;;;;;;;;80.33;61.33;;;;;3.97;100.00;99142.97;6308724;20;3636713;-43
2023/12/12 06:41:33;;;;;;;;;81.00;59.67;;;;;4.01;100.00;99143.72;6309367;20;3638124;-44
2023/12/12 06:44:03;;;;;;;;;74.00;58.00;;;;;4.16;100.00;99143.94;6276069;20;3637764;-42
2023/12/12 06:46:33;;;;;;;;;77.33;58.33;;;;;4.22;100.00;99141.94;6310170;20;3636719;-45
2023/12/12 06:49:06;;;;;;;;;71.50;57.00;;;;;4.25;100.00;99147.09;6307469;20;2876324;-44
2023/12/12 06:51:36;;;;;;;;;76.33;56.67;;;;;4.31;100.00;99147.69;6277364;20;3646112;-45
2023/12/12 06:54:05;;;;;;;;;76.67;59.00;;;;;4.40;100.00;99155.25;6308077;20;3630527;-43
2023/12/12 06:56:35;;;;;;;;;79.67;61.00;;;;;4.48;100.00;99162.88;6307487;20;3631636;-44
2023/12/12 06:59:05;;;;;;;;;71.67;57.00;;;;;4.33;100.00;99160.91;6309390;20;3625441;-43
2023/12/12 07:01:35;;;;;;;;;81.00;61.33;;;;;4.64;100.00;99160.38;6309100;20;3656552;-43
2023/12/12 07:04:04;;;;;;;;;78.50;62.50;;;;;4.68;100.00;99171.72;6275933;20;2864894;-43
2023/12/12 07:06:35;;;;;;;;;70.33;59.00;;;;;4.82;100.00;99170.19;6274732;20;2876594;-43
2023/12/12 07:09:05;;;;;;;;;78.00;58.00;;;;;4.87;100.00;99162.00;6307863;20;3655560;-43
2023/12/12 07:11:34;;;;;;;;;76.00;58.33;;;;;4.93;100.00;99167.00;6309522;20;3626329;-43
2023/12/12 07:14:04;;;;;;;;;73.00;58.33;;;;;4.90;100.00;99183.13;6309217;20;3618123;-44
2023/12/12 07:16:34;;;;;;;;;70.00;54.33;;;;;5.01;100.00;99175.50;6306167;20;2885933;-43
2023/12/12 07:19:04;;;;;;;;;77.67;59.67;;;;;4.88;100.00;99177.00;6307631;20;2875382;-46
2023/12/12 07:21:41;;;;;;;;;77.00;60.33;;;;;5.16;100.00;99176.56;6308451;20;3628456;-43
2023/12/12 07:24:14;;;;;;;;;77.00;57.67;;;;;5.01;100.00;99175.50;6307494;20;3635692;-43
2023/12/12 07:26:47;;;;;;;;;84.00;61.33;;;;;5.45;100.00;99177.84;6307723;20;3649248;-43
2023/12/12 07:29:19;;;;;;;;;75.33;57.67;;;;;5.41;100.00;99178.03;6308747;20;3631507;-44
2023/12/12 07:31:50;;;;;;;;;83.67;65.33;;;;;5.24;100.00;99186.84;6312702;20;3623193;-47
2023/12/12 07:34:20;;;;;;;;;80.00;63.33;;;;;5.34;100.00;99185.44;6312877;20;3623552;-46
2023/12/12 07:36:50;;;;;;;;;85.33;68.00;;;;;5.40;100.00;99190.50;6314018;20;3647243;-45
2023/12/12 07:39:19;;;;;;;;;77.33;60.33;;;;;5.52;100.00;99180.19;6313790;20;3633636;-43
2023/12/12 07:41:49;;;;;;;;;78.33;60.67;;;;;5.54;100.00;99178.31;6312680;20;3635741;-45
2023/12/12 07:44:19;;;;;;;;;74.67;61.00;;;;;5.82;100.00;99172.44;6313400;20;2870230;-45
2023/12/12 07:46:48;;;;;;;;;74.00;57.00;;;;;6.21;100.00;99188.25;6314343;20;3634711;-44
2023/12/12 07:49:18;;;;;;;;;79.00;59.00;;;;;6.16;100.00;99192.94;6309564;20;3641928;-43
2023/12/12 07:51:49;;;;;;;;;73.33;58.00;;;;;6.16;100.00;99192.94;6313210;20;3625249;-44
2023/12/12 07:54:18;;;;;;;;;78.33;59.33;;;;;6.14;100.00;99189.53;6313148;20;3656480;-48
2023/12/12 07:56:48;;;;;;;;;78.33;60.67;;;;;6.32;100.00;99190.38;6279610;20;3622215;-44
2023/12/12 07:59:17;;;;;;;;;86.00;66.00;;;;;6.11;100.00;99189.69;6314050;20;2631621;-44
2023/12/12 08:01:47;;;;;;;;;75.67;57.67;;;;;5.98;100.00;99193.88;6313343;20;3636756;-44
2023/12/12 08:04:16;;;;;;;;;56.00;40.50;;;;;5.86;100.00;99190.88;6313789;20;2869018;-43
2023/12/12 08:06:46;;;;;;;;;69.33;54.33;;;;;5.94;100.00;99204.69;6279499;20;2885838;-44
2023/12/12 08:09:16;;;;;;;;;73.67;56.00;;;;;5.86;100.00;99212.19;6313322;20;3626345;-43
2023/12/12 08:11:46;;;;;;;;;74.33;56.67;;;;;6.04;100.00;99204.25;6313916;20;3645154;-44
2023/12/12 08:14:16;;;;;;;;;69.00;52.67;;;;;6.13;100.00;99195.78;6311437;20;3633618;-44
2023/12/12 08:16:45;;;;;;;;;72.33;53.33;;;;;6.10;100.00;99193.28;6310196;20;3628446;-44
2023/12/12 08:19:16;;;;;;;;;69.00;54.67;;;;;5.99;100.00;99193.81;6308786;20;2874373;-43
2023/12/12 08:21:46;;;;;;;;;64.33;52.33;;;;;5.96;100.00;99198.47;6312966;20;2858783;-45
2023/12/12 08:24:16;;;;;;;;;66.33;54.33;;;;;5.79;100.00;99196.59;6311414;20;2875401;-43
2023/12/12 08:26:46;;;;;;;;;62.00;50.67;;;;;5.96;100.00;99195.78;6314385;20;2862832;-44
2023/12/12 08:29:16;;;;;;;;;65.33;52.67;;;;;5.55;100.00;99204.00;6309790;20;2875378;-44
2023/12/12 08:31:45;;;;;;;;;61.00;49.00;;;;;5.37;100.00;99201.31;6314909;20;2862843;-46
2023/12/12 08:34:14;;;;;;;;;59.50;47.50;;;;;5.10;100.00;99207.91;6281365;20;2852386;-45
2023/12/12 08:36:44;;;;;;;;;61.33;46.33;;;;;5.23;100.00;99206.41;6282740;20;3628450;-43
2023/12/12 08:39:13;;;;;;;;;56.00;46.50;;;;;5.33;100.00;99202.38;6312829;20;2859624;-44
2023/12/12 08:41:43;;;;;;;;;68.67;50.00;;;;;5.06;100.00;99210.72;6279068;20;2883092;-46
2023/12/12 08:44:11;;;;;;;;;60.00;48.50;;;;;5.15;100.00;99217.41;6312272;20;2863948;-44
2023/12/12 08:46:43;;;;;;;;;72.67;59.33;;;;;5.13;100.00;99210.44;6278811;20;2872199;-45
2023/12/12 08:49:13;;;;;;;;;74.67;58.67;;;;;5.21;100.00;99200.28;6311885;20;2871223;-46
2023/12/12 08:51:43;;;;;;;;;73.00;56.33;;;;;5.88;100.00;99201.47;6313785;20;3625338;-47
2023/12/12 08:54:13;;;;;;;;;72.33;55.33;;;;;6.19;100.00;99194.59;6314692;20;3642006;-47
2023/12/12 08:56:45;;;;;;;;;70.67;55.00;;;;;6.19;100.00;99198.16;6314094;20;3629438;-44
2023/12/12 08:59:14;;;;;;;;;68.67;52.33;;;;;6.01;100.00;99205.28;6313570;20;3631545;-44
2023/12/12 09:01:44;;;;;;;;;61.67;50.00;;;;;6.25;100.00;99200.47;6311870;20;2859668;-44
2023/12/12 09:04:16;;;;;;;;;64.67;52.67;;;;;6.65;100.00;99202.88;6314457;20;3621143;-44
2023/12/12 09:06:46;;;;;;;;;68.33;52.33;;;;;6.63;100.00;99208.25;6313613;20;3617176;-44
2023/12/12 09:09:15;;;;;;;;;58.00;47.50;;;;;6.51;100.00;99208.94;6314349;20;2848263;-45
2023/12/12 09:11:49;;;;;;;;;66.00;52.00;;;;;6.75;100.00;99212.97;6282039;20;3626497;-44
2023/12/12 09:14:17;;;;;;;;;61.00;50.00;;;;;6.79;100.00;99214.53;6314326;20;2847147;-44
2023/12/12 09:16:46;;;;;;;;;63.50;49.50;;;;;6.77;100.00;99216.41;6280507;20;2864860;-45
2023/12/12 09:19:17;;;;;;;;;69.33;53.33;;;;;6.56;100.00;99222.91;6276949;20;3625390;-43
2023/12/12 09:21:49;;;;;;;;;65.00;51.33;;;;;6.30;100.00;99221.59;6314743;20;2862828;-44
2023/12/12 09:24:18;;;;;;;;;66.33;51.33;;;;;6.41;100.00;99221.03;6311714;20;3638792;-45
2023/12/12 09:26:47;;;;;;;;;61.50;50.50;;;;;6.60;100.00;99227.97;6312622;20;2861743;-43
2023/12/12 09:29:17;;;;;;;;;68.67;54.33;;;;;5.93;100.00;99229.63;6278592;20;3619039;-44
2023/12/12 09:31:49;;;;;;;;;65.33;52.33;;;;;5.76;100.00;99226.91;6314251;20;2867010;-43
2023/12/12 09:34:18;;;;;;;;;72.33;56.00;;;;;5.81;100.00;99227.53;6311332;20;2878597;-43
2023/12/12 09:36:48;;;;;;;;;78.00;58.33;;;;;6.04;100.00;99221.09;6313110;20;3640892;-45
2023/12/12 09:39:20;;;;;;;;;74.00;60.00;;;;;6.17;100.00;99220.50;6313267;20;3612826;-44
2023/12/12 09:41:51;;;;;;;;;69.67;55.00;;;;;6.18;100.00;99228.38;6312179;20;2876464;-46
2023/12/12 09:44:20;;;;;;;;;78.00;58.00;;;;;6.20;100.00;99223.84;6311870;20;3646549;-44
2023/12/12 09:46:51;;;;;;;;;72.33;55.67;;;;;6.58;100.00;99231.66;6309661;20;3614808;-47
2023/12/12 09:49:22;;;;;;;;;75.67;58.67;;;;;6.99;100.00;99225.94;6311178;20;3632555;-43
2023/12/12 09:51:53;;;;;;;;;74.00;56.67;;;;;7.16;100.00;99228.53;6311889;20;3643044;-46
2023/12/12 09:54:24;;;;;;;;;69.33;55.33;;;;;7.16;100.00;99225.88;6312125;20;3616942;-43
2023/12/12 09:56:55;;;;;;;;;66.67;54.00;;;;;7.25;100.00;99222.69;6312283;20;3627400;-43
2023/12/12 09:59:24;;;;;;;;;57.33;47.00;;;;;7.55;100.00;99223.72;6312946;20;2859654;-43
2023/12/12 10:01:55;;;;;;;;;60.33;49.00;;;;;7.45;100.00;99218.91;6312308;20;2859706;-44
2023/12/12 10:04:31;;;;;;;;;64.67;49.67;;;;;7.69;100.00;99216.66;6310600;20;3632631;-44
2023/12/12 10:07:05;;;;;;;;;63.00;47.00;;;;;7.83;100.00;99212.31;6310223;20;2862946;-44
2023/12/12 10:09:34;;;;;;;;;52.50;43.00;;;;;7.76;100.00;99214.47;6277374;20;2836778;-44
2023/12/12 10:12:03;;;;;;;;;56.50;47.00;;;;;7.96;100.00;99207.97;6276816;20;2859679;-43
2023/12/12 10:14:40;;;;;;;;;53.00;40.50;;;;;7.85;100.00;99203.25;6278027;20;2875382;-46
2023/12/12 10:17:12;;;;;;;;;53.00;43.50;;;;;7.90;100.00;99209.22;6281694;20;2859646;-44
2023/12/12 10:19:42;;;;;;;;;54.33;43.67;;;;;7.73;100.00;99211.13;6280103;20;2857586;-44
2023/12/12 10:22:12;;;;;;;;;54.67;44.00;;;;;7.49;100.00;99192.88;6311191;20;3607528;-44
2023/12/12 10:24:40;;;;;;;;;55.00;45.00;;;;;7.45;100.00;99199.31;6313567;20;2858666;-43
2023/12/12 10:27:20;;;;;;;;;55.00;44.50;;;;;7.53;100.00;99197.13;6280320;20;2857600;-46
2023/12/12 10:29:49;;;;;;;;;51.50;41.00;;;;;7.63;100.00;99200.09;6280992;20;2853440;-45
2023/12/12 10:32:18;;;;;;;;;54.50;46.00;;;;;7.45;100.00;99191.31;6280565;20;2858644;-44
2023/12/12 10:34:49;;;;;;;;;61.33;47.00;;;;;7.59;100.00;99196.75;6280117;20;3626398;-44
2023/12/12 10:37:22;;;;;;;;;59.67;49.00;;;;;7.32;100.00;99201.84;6307586;20;2873185;-44
2023/12/12 10:39:52;;;;;;;;;59.00;46.50;;;;;7.43;100.00;99193.25;6311581;20;2860700;-45
2023/12/12 10:42:21;;;;;;;;;63.00;49.00;;;;;7.48;100.00;99200.03;6280838;20;2807587;-45
2023/12/12 10:44:57;;;;;;;;;56.50;45.50;;;;;7.86;100.00;99201.44;6279189;20;2856991;-44
2023/12/12 10:47:27;;;;;;;;;57.33;47.33;;;;;7.96;100.00;99205.31;6279801;20;2858740;-43
2023/12/12 10:50:02;;;;;;;;;58.67;48.33;;;;;7.94;100.00;99203.69;6306690;20;2871254;-46
2023/12/12 10:52:33;;;;;;;;;47.50;41.00;;;;;8.43;100.00;99211.50;6311719;20;2869062;-46
2023/12/12 10:55:05;;;;;;;;;62.00;49.33;;;;;8.61;100.00;99204.13;6276360;20;2868127;-45
2023/12/12 10:57:44;;;;;;;;;62.67;50.33;;;;;8.65;100.00;99197.66;6308377;20;3597149;-45
2023/12/12 11:00:16;;;;;;;;;53.00;44.00;;;;;8.65;99.40;99192.31;6309673;20;2845068;-44
2023/12/12 11:02:48;;;;;;;;;52.00;43.00;;;;;8.81;98.64;99195.75;6279063;20;2869108;-45
2023/12/12 11:05:18;;;;;;;;;48.50;42.50;;;;;9.18;97.11;99201.47;6282492;20;2851577;-46
2023/12/12 11:07:52;;;;;;;;;50.00;40.00;;;;;8.77;96.73;99204.94;6282274;20;3606517;-45
2023/12/12 11:10:22;;;;;;;;;56.67;46.33;;;;;9.37;96.34;99206.50;6313196;20;3620060;-45
2023/12/12 11:13:02;;;;;;;;;52.67;43.00;;;;;9.36;96.02;99213.69;6315936;20;2868505;-46
2023/12/12 11:15:32;;;;;;;;;44.67;38.00;;;;;9.51;94.22;99214.53;6317444;20;3608724;-45